Time;durP1;ratioP1;P1;durP2;ratioP2;P2;SDS_P1;SDS_P2;PMS_P1;PMS_P2;Temp;Humidity;BMP_temperature;BMP_pressure;BME280_temperature;BME280_humidity;BME280_pressure;Samples;Min_cycle;Max_cycle;Signal;HPM_P1;HPM_P2
2022/03/13 00:02:16;;;;;;;7.97;6.20;;;;;;;11.24;26.59;100547.59;10244160;28;20222;-84
2022/03/13 00:07:19;;;;;;;9.15;5.82;;;;;;;11.10;26.87;100539.41;10233373;28;20334;-82
2022/03/13 00:12:29;;;;;;;8.67;6.40;;;;;;;10.65;27.03;100539.28;10242301;28;20691;-83
2022/03/13 00:17:31;;;;;;;7.60;5.70;;;;;;;10.95;26.59;100548.53;10226948;28;20779;-82
2022/03/13 00:22:36;;;;;;;8.47;6.30;;;;;;;10.84;26.93;100541.63;10241361;28;20737;-82
2022/03/13 00:27:38;;;;;;;7.75;5.55;;;;;;;10.87;26.15;100549.44;10228200;28;20254;-83
2022/03/13 00:32:42;;;;;;;8.43;6.03;;;;;;;11.27;25.53;100547.72;10230419;28;20278;-83
2022/03/13 00:37:44;;;;;;;7.80;5.70;;;;;;;10.76;26.01;100549.84;10237043;28;20306;-83
2022/03/13 00:42:53;;;;;;;9.87;5.83;;;;;;;10.75;25.42;100547.34;10225814;28;20199;-83
2022/03/13 00:47:56;;;;;;;7.63;5.43;;;;;;;11.00;24.61;100542.66;10201555;28;20620;-82
2022/03/13 00:52:58;;;;;;;8.20;6.03;;;;;;;10.65;25.08;100548.59;10219358;28;20362;-83
2022/03/13 00:58:01;;;;;;;7.27;5.77;;;;;;;10.27;24.99;100542.16;10246144;28;20238;-84
2022/03/13 01:03:03;;;;;;;9.77;5.87;;;;;;;10.71;24.72;100538.75;10242850;28;20278;-84
2022/03/13 01:08:05;;;;;;;9.60;6.43;;;;;;;10.85;24.49;100531.97;10231745;28;20900;-84
2022/03/13 01:13:08;;;;;;;7.40;5.73;;;;;;;9.61;25.52;100536.16;10234074;28;20255;-83
2022/03/13 01:18:10;;;;;;;9.23;5.50;;;;;;;9.96;24.46;100540.50;10224786;28;20357;-85
2022/03/13 01:23:16;;;;;;;7.70;5.50;;;;;;;10.68;23.77;100530.94;10221604;28;20239;-84
2022/03/13 01:28:19;;;;;;;8.10;5.80;;;;;;;10.59;23.84;100533.03;10241417;28;20297;-84
2022/03/13 01:33:21;;;;;;;7.60;5.80;;;;;;;9.78;24.21;100523.97;10242802;28;20570;-84
2022/03/13 01:38:24;;;;;;;7.07;5.33;;;;;;;9.35;24.25;100506.00;10254375;28;20270;-84
2022/03/13 01:43:30;;;;;;;7.57;5.50;;;;;;;9.49;23.58;100508.59;10230462;29;20250;-84
2022/03/13 01:48:39;;;;;;;7.23;5.57;;;;;;;9.72;23.37;100501.56;10255503;28;20231;-87
2022/03/13 01:53:41;;;;;;;7.97;5.67;;;;;;;10.98;21.67;100492.09;10237150;28;20325;-84
2022/03/13 01:58:51;;;;;;;7.90;5.67;;;;;;;11.60;20.79;100495.94;10249882;28;20226;-90
2022/03/13 02:03:54;;;;;;;8.00;5.60;;;;;;;10.54;21.90;100493.63;10253848;28;20231;-85
2022/03/13 02:08:57;;;;;;;7.83;6.27;;;;;;;11.14;21.85;100484.59;10239757;28;20541;-86
2022/03/13 02:13:59;;;;;;;10.17;7.23;;;;;;;10.32;23.29;100477.00;10238893;28;20298;-85
2022/03/13 02:19:02;;;;;;;8.80;6.53;;;;;;;9.35;23.79;100474.13;10246969;28;20639;-90
2022/03/13 02:24:11;;;;;;;9.73;7.13;;;;;;;9.99;22.98;100460.75;10234906;28;20673;-88
2022/03/13 02:29:15;;;;;;;10.33;6.40;;;;;;;11.05;20.77;100455.56;10248736;28;20227;-90
2022/03/13 02:34:19;;;;;;;14.30;7.77;;;;;;;10.66;22.49;100465.44;10235844;29;20266;-91
2022/03/13 02:39:22;;;;;;;8.20;6.87;;;;;;;11.23;21.98;100458.22;10222010;29;20567;-86
2022/03/13 02:44:25;;;;;;;8.47;6.70;;;;;;;11.39;22.07;100451.53;10242932;28;20262;-91
2022/03/13 02:49:29;;;;;;;10.37;7.13;;;;;;;11.18;22.93;100447.09;10253361;29;20617;-87
2022/03/13 02:54:32;;;;;;;11.33;7.30;;;;;;;11.12;22.85;100438.03;10240544;28;20239;-87
2022/03/13 02:59:34;;;;;;;9.70;6.97;;;;;;;10.98;23.06;100444.00;10233549;28;20238;-84
2022/03/13 03:04:37;;;;;;;10.47;7.20;;;;;;;11.05;23.00;100430.09;10245714;28;20207;-84
2022/03/13 03:09:39;;;;;;;8.70;6.10;;;;;;;10.95;22.08;100435.38;10241283;28;20270;-84
2022/03/13 03:14:41;;;;;;;11.50;6.97;;;;;;;10.31;23.17;100435.78;10217890;28;20290;-83
2022/03/13 03:19:43;;;;;;;8.80;6.30;;;;;;;10.55;22.59;100424.63;10223974;28;20265;-84
2022/03/13 03:24:48;;;;;;;8.47;6.43;;;;;;;10.82;22.10;100422.38;10237028;28;20559;-84
2022/03/13 03:29:50;;;;;;;9.20;7.10;;;;;;;10.73;22.68;100430.94;10238283;29;20553;-85
2022/03/13 03:34:53;;;;;;;8.97;6.57;;;;;;;10.86;22.42;100429.00;10237762;28;20281;-86
2022/03/13 03:39:55;;;;;;;8.47;6.63;;;;;;;10.78;22.87;100433.53;10234524;28;20211;-83
2022/03/13 03:44:57;;;;;;;11.17;7.40;;;;;;;10.83;22.97;100430.50;10255432;28;20203;-85
2022/03/13 03:50:00;;;;;;;8.30;5.97;;;;;;;10.92;23.14;100422.75;10236683;28;20243;-85
2022/03/13 03:55:04;;;;;;;8.43;6.27;;;;;;;10.07;23.70;100430.78;10254385;28;20230;-85
2022/03/13 04:00:08;;;;;;;8.47;6.60;;;;;;;10.10;24.35;100424.44;10223071;28;20203;-86
2022/03/13 04:05:16;;;;;;;7.57;5.60;;;;;;;10.30;23.43;100428.47;10247113;28;20199;-84
2022/03/13 04:10:18;;;;;;;9.13;6.67;;;;;;;9.59;23.60;100422.75;10230538;28;20238;-85
2022/03/13 04:15:20;;;;;;;8.90;6.07;;;;;;;10.01;24.15;100421.69;10228860;28;20266;-82
2022/03/13 04:20:24;;;;;;;13.40;6.67;;;;;;;9.60;24.95;100419.59;10231850;28;20520;-85
2022/03/13 04:25:26;;;;;;;8.97;6.07;;;;;;;9.64;25.18;100422.59;10250118;28;20199;-83
2022/03/13 04:30:30;;;;;;;9.03;5.80;;;;;;;9.29;25.52;100414.25;10229029;28;20238;-83
2022/03/13 04:35:33;;;;;;;10.47;6.33;;;;;;;9.17;26.19;100413.31;10232647;28;20263;-84
2022/03/13 04:40:35;;;;;;;11.00;7.17;;;;;;;9.32;25.03;100410.72;10221548;28;20231;-84
2022/03/13 04:45:37;;;;;;;8.97;6.13;;;;;;;9.13;24.95;100412.31;10219559;28;20264;-84
2022/03/13 04:50:40;;;;;;;9.03;6.03;;;;;;;9.21;24.87;100403.81;10229132;28;21037;-83
2022/03/13 04:55:43;;;;;;;7.53;5.63;;;;;;;8.65;23.65;100402.97;10234830;28;20247;-84
2022/03/13 05:00:48;;;;;;;11.93;5.83;;;;;;;9.09;22.49;100398.06;10237607;28;20613;-88
2022/03/13 05:05:51;;;;;;;9.00;5.90;;;;;;;9.11;22.24;100401.38;10237842;28;20269;-85
2022/03/13 05:10:53;;;;;;;7.47;5.60;;;;;;;9.20;21.54;100399.34;10246785;28;20284;-85
2022/03/13 05:15:55;;;;;;;9.20;6.07;;;;;;;9.42;21.44;100398.25;10231669;28;20318;-85
2022/03/13 05:20:58;;;;;;;7.70;5.67;;;;;;;10.07;21.09;100396.91;10228329;28;20303;-85
2022/03/13 05:26:00;;;;;;;8.70;5.33;;;;;;;10.55;19.92;100406.84;10225432;28;20554;-85
2022/03/13 05:31:02;;;;;;;9.87;6.47;;;;;;;9.08;23.09;100418.94;10230714;28;20231;-85
2022/03/13 05:36:06;;;;;;;10.63;6.93;;;;;;;9.11;22.78;100417.47;10225017;28;20611;-86
2022/03/13 05:41:10;;;;;;;10.80;7.00;;;;;;;8.79;23.67;100418.88;10238089;28;20282;-87
2022/03/13 05:46:12;;;;;;;7.93;5.23;;;;;;;8.77;24.04;100412.75;10227414;28;20231;-84
2022/03/13 05:51:14;;;;;;;8.83;5.87;;;;;;;9.31;22.68;100403.44;10228131;28;20231;-83
2022/03/13 05:56:18;;;;;;;7.10;4.80;;;;;;;9.71;21.54;100409.56;10213382;28;20309;-84
2022/03/13 06:01:21;;;;;;;7.77;5.40;;;;;;;10.49;19.25;100403.38;10232762;28;20215;-85
2022/03/13 06:06:26;;;;;;;11.23;5.80;;;;;;;9.49;21.46;100417.47;10238771;28;20528;-84
2022/03/13 06:11:30;;;;;;;11.47;6.30;;;;;;;8.94;22.78;100421.97;10229643;28;20215;-85
2022/03/13 06:16:32;;;;;;;9.23;6.60;;;;;;;9.33;23.47;100422.84;10218977;28;20301;-84
2022/03/13 06:21:34;;;;;;;10.63;6.40;;;;;;;7.48;25.68;100435.91;10228050;28;20270;-84
2022/03/13 06:26:36;;;;;;;9.37;6.57;;;;;;;8.93;23.57;100427.94;10231279;28;20199;-84
2022/03/13 06:31:40;;;;;;;10.93;6.17;;;;;;;8.74;22.75;100417.06;10231560;28;20278;-90
2022/03/13 06:36:43;;;;;;;8.43;6.20;;;;;;;9.08;22.80;100418.94;10251915;28;20224;-90
2022/03/13 06:41:45;;;;;;;8.17;5.83;;;;;;;9.86;21.90;100424.28;10247990;28;20266;-86
2022/03/13 06:46:48;;;;;;;13.20;6.93;;;;;;;9.24;22.40;100437.00;10240932;29;20218;-86
2022/03/13 06:51:50;;;;;;;9.67;6.40;;;;;;;9.68;21.15;100424.38;10247374;28;20215;-90
2022/03/13 06:56:55;;;;;;;10.47;6.57;;;;;;;10.36;21.88;100418.59;10244270;29;20254;-91
2022/03/13 07:01:58;;;;;;;11.63;6.50;;;;;;;10.64;20.99;100414.06;10230019;28;20211;-88
2022/03/13 07:07:00;;;;;;;9.07;6.03;;;;;;;10.73;21.30;100417.66;10248652;28;20293;-85
2022/03/13 07:12:05;;;;;;;10.67;6.63;;;;;;;10.94;21.56;100425.25;10225791;28;20259;-87
2022/03/13 07:17:07;;;;;;;8.80;7.00;;;;;;;11.17;21.18;100423.63;10243324;28;20306;-85
2022/03/13 07:22:11;;;;;;;11.30;7.07;;;;;;;11.06;21.49;100420.44;10217721;28;20655;-86
2022/03/13 07:27:15;;;;;;;8.77;7.10;;;;;;;10.55;22.22;100424.63;10222573;28;20235;-86
2022/03/13 07:32:17;;;;;;;11.57;6.60;;;;;;;11.25;20.53;100428.41;10227185;28;20490;-87
2022/03/13 07:37:20;;;;;;;11.07;5.60;;;;;;;10.94;20.12;100425.25;10232791;28;20282;-90
2022/03/13 07:42:22;;;;;;;8.03;6.03;;;;;;;11.52;19.18;100428.94;10224793;28;20242;-88
2022/03/13 07:47:26;;;;;;;8.77;6.20;;;;;;;12.02;18.32;100431.41;10239173;29;20258;-86
2022/03/13 07:52:28;;;;;;;6.97;5.53;;;;;;;12.37;17.61;100432.53;10228959;28;20203;-87
2022/03/13 07:57:33;;;;;;;7.37;5.23;;;;;;;12.48;18.02;100436.50;10245883;28;20652;-92
2022/03/13 08:02:45;;;;;;;9.83;5.70;;;;;;;12.71;17.69;100414.09;10224911;28;20612;-91
2022/03/13 08:07:52;;;;;;;9.20;6.43;;;;;;;12.93;17.53;100429.75;10232377;28;20219;-86
2022/03/13 08:12:55;;;;;;;9.03;5.80;;;;;;;13.31;17.26;100426.34;10231590;28;20207;-90
2022/03/13 08:17:57;;;;;;;9.33;6.30;;;;;;;13.12;17.85;100417.69;10242723;28;20295;-90
2022/03/13 08:22:59;;;;;;;7.20;6.07;;;;;;;12.92;17.71;100418.75;10244517;28;20207;-86
2022/03/13 08:28:02;;;;;;;9.17;6.33;;;;;;;12.74;17.94;100410.53;10228669;28;20556;-87
2022/03/13 08:33:05;;;;;;;10.00;6.90;;;;;;;12.60;18.30;100418.63;10226406;28;20281;-86
2022/03/13 08:38:07;;;;;;;7.68;6.43;;;;;;;12.66;18.48;100425.72;10222934;28;20310;-85
2022/03/13 08:43:10;;;;;;;11.57;7.03;;;;;;;12.76;18.42;100424.34;10228705;28;20219;-86
2022/03/13 08:48:13;;;;;;;12.18;7.15;;;;;;;12.89;18.13;100415.47;10241577;28;20329;-84
2022/03/13 08:53:17;;;;;;;11.30;7.73;;;;;;;12.95;18.54;100401.81;10239181;28;20231;-84
2022/03/13 08:58:21;;;;;;;10.65;7.38;;;;;;;14.18;17.81;100400.50;10262784;28;20258;-92
2022/03/13 09:03:26;;;;;;;11.48;7.32;;;;;;;12.91;19.06;100395.22;10236835;28;20203;-92
2022/03/13 09:08:29;;;;;;;10.52;7.55;;;;;;;14.50;17.83;100394.72;10246167;28;20203;-90
2022/03/13 09:13:32;;;;;;;8.77;7.72;;;;;;;14.72;17.10;100393.97;10252275;28;20207;-86
2022/03/13 09:18:35;;;;;;;9.95;7.53;;;;;;;15.08;16.86;100389.00;10243931;29;20235;-85
2022/03/13 09:23:39;;;;;;;12.33;7.77;;;;;;;14.64;17.23;100395.00;10265583;28;20207;-86
2022/03/13 09:28:44;;;;;;;10.30;7.78;;;;;;;14.30;18.25;100405.22;10264477;28;20212;-86
2022/03/13 09:33:47;;;;;;;12.88;8.35;;;;;;;14.76;18.25;100400.56;10242445;29;20235;-86
2022/03/13 09:38:52;;;;;;;11.50;8.27;;;;;;;14.88;18.63;100397.56;10258865;28;20227;-90
2022/03/13 09:43:54;;;;;;;13.73;9.80;;;;;;;14.70;18.83;100387.81;10249481;28;20219;-91
2022/03/13 09:48:58;;;;;;;16.83;9.10;;;;;;;15.58;17.85;100387.84;10243997;29;20203;-87
2022/03/13 09:54:02;;;;;;;10.45;7.70;;;;;;;15.08;18.53;100389.00;10218475;28;20270;-87
2022/03/13 09:59:05;;;;;;;10.88;8.82;;;;;;;14.93;18.69;100385.03;10242520;28;20199;-87
2022/03/13 10:04:11;;;;;;;15.43;9.85;;;;;;;15.62;18.71;100383.03;10264729;28;20466;-86
2022/03/13 10:09:24;;;;;;;12.05;9.40;;;;;;;14.42;19.91;100393.75;10250577;28;20248;-84
2022/03/13 10:14:27;;;;;;;11.60;9.30;;;;;;;15.56;19.03;100387.41;10254743;28;20247;-85
2022/03/13 10:19:31;;;;;;;14.68;8.95;;;;;;;15.86;18.93;100388.34;10263132;28;20231;-86
2022/03/13 10:24:46;;;;;;;11.82;8.85;;;;;;;15.19;20.13;100378.63;10234574;28;20204;-86
2022/03/13 10:29:48;;;;;;;12.05;8.38;;;;;;;14.46;20.86;100386.13;10254959;29;20208;-85
2022/03/13 10:34:56;;;;;;;12.07;9.05;;;;;;;14.83;20.75;100377.09;10231573;28;20227;-86
2022/03/13 10:40:07;;;;;;;15.18;8.77;;;;;;;14.89;20.15;100376.44;10227777;29;20301;-86
2022/03/13 10:45:39;;;;;;;11.83;9.10;;;;;;;15.12;21.04;100378.50;10233190;28;21544;-87
2022/03/13 10:50:45;;;;;;;11.60;8.32;;;;;;;15.76;20.29;100373.94;10229310;28;20242;-88
2022/03/13 10:56:09;;;;;;;11.25;8.73;;;;;;;16.19;19.93;100370.50;10223240;28;20267;-88
2022/03/13 11:01:16;;;;;;;10.82;8.40;;;;;;;15.30;21.29;100368.25;10243153;28;20258;-87
2022/03/13 11:06:23;;;;;;;10.30;7.82;;;;;;;15.42;21.42;100365.19;10230440;29;20253;-86
2022/03/13 11:11:32;;;;;;;11.48;8.93;;;;;;;15.73;20.91;100370.63;10229794;28;20230;-84
2022/03/13 11:16:34;;;;;;;10.57;7.82;;;;;;;15.85;20.83;100361.03;10248857;28;20719;-87
2022/03/13 11:21:43;;;;;;;10.25;8.02;;;;;;;16.55;20.08;100353.88;10230110;28;20208;-88
2022/03/13 11:26:46;;;;;;;11.38;8.63;;;;;;;16.22;20.94;100346.91;10234353;29;20667;-86
2022/03/13 11:31:50;;;;;;;11.20;8.45;;;;;;;16.46;20.29;100344.78;10232973;28;20282;-92
2022/03/13 11:36:53;;;;;;;11.82;8.80;;;;;;;16.48;19.58;100337.47;10226265;29;20246;-86
2022/03/13 11:41:58;;;;;;;10.10;8.30;;;;;;;16.76;19.83;100325.56;10253732;28;20323;-91
2022/03/13 11:47:19;;;;;;;13.25;9.38;;;;;;;16.27;20.36;100332.31;10237866;28;20274;-88
2022/03/13 11:52:25;;;;;;;11.57;8.77;;;;;;;16.98;18.61;100316.00;10227904;28;20215;-85
2022/03/13 11:57:42;;;;;;;12.05;8.70;;;;;;;16.35;20.14;100324.66;10222819;28;20258;-91
2022/03/13 12:02:45;;;;;;;11.13;8.27;;;;;;;16.17;20.51;100321.59;10216099;28;20347;-93
2022/03/13 12:07:54;;;;;;;11.57;8.45;;;;;;;18.10;18.90;100307.94;10218468;28;21009;-95
2022/03/13 12:13:09;;;;;;;11.15;8.57;;;;;;;17.94;18.82;100302.53;10256728;28;20215;-91
2022/03/13 12:18:31;;;;;;;10.55;6.93;;;;;;;15.95;20.91;100308.22;10233681;28;20227;-93
2022/03/13 12:23:38;;;;;;;9.32;7.10;;;;;;;17.66;20.02;100286.00;10233305;28;20227;-89
2022/03/13 12:28:42;;;;;;;7.47;6.10;;;;;;;16.17;21.30;100300.78;10249264;28;20191;-93
2022/03/13 12:33:46;;;;;;;12.35;6.50;;;;;;;15.93;21.43;100304.97;10243595;28;20227;-92
2022/03/13 12:38:55;;;;;;;6.78;4.72;;;;;;;17.20;20.30;100276.25;10248765;28;20305;-94
2022/03/13 12:44:04;;;;;;;6.97;5.55;;;;;;;17.25;20.29;100273.00;10251694;28;20250;-91
2022/03/13 12:49:16;;;;;;;7.45;6.22;;;;;;;16.41;21.34;100269.75;10215148;28;20270;-85
2022/03/13 12:54:21;;;;;;;7.78;5.72;;;;;;;17.48;20.28;100265.88;10215302;28;20247;-90
2022/03/13 12:59:40;;;;;;;7.22;5.25;;;;;;;17.78;20.06;100257.09;10241666;29;20207;-87
2022/03/13 13:05:08;;;;;;;5.72;4.85;;;;;;;18.68;19.03;100249.66;10232191;28;20612;-86
2022/03/13 13:10:11;;;;;;;5.68;4.22;;;;;;;18.23;19.61;100254.84;10222147;28;20300;-87
2022/03/13 13:15:15;;;;;;;6.65;4.43;;;;;;;16.28;21.41;100256.09;10222453;28;20271;-86
2022/03/13 13:20:28;;;;;;;6.30;4.78;;;;;;;17.46;20.25;100238.91;10235249;28;20258;-87
2022/03/13 13:25:31;;;;;;;6.97;4.47;;;;;;;17.26;20.56;100229.75;10252137;28;20290;-86
2022/03/13 13:30:34;;;;;;;6.97;4.43;;;;;;;17.44;20.21;100235.63;10217062;28;20552;-86
2022/03/13 13:35:53;;;;;;;5.20;4.25;;;;;;;17.89;20.26;100222.81;10235720;29;20714;-86
2022/03/13 13:40:55;;;;;;;6.25;4.30;;;;;;;17.42;20.35;100232.34;10223995;28;20211;-89
2022/03/13 13:46:05;;;;;;;4.35;3.67;;;;;;;18.48;19.06;100209.97;10248723;28;20219;-87
2022/03/13 13:51:33;;;;;;;4.25;3.45;;;;;;;17.72;20.11;100212.13;10256846;28;20220;-89
2022/03/13 13:56:39;;;;;;;5.65;3.55;;;;;;;17.99;19.77;100215.53;10241375;29;20211;-91
2022/03/13 14:01:50;;;;;;;5.32;4.18;;;;;;;20.20;17.61;100205.69;10214631;29;20211;-88
2022/03/13 14:06:53;;;;;;;4.82;3.72;;;;;;;17.16;20.55;100219.09;10226640;29;20303;-87
2022/03/13 14:11:58;;;;;;;4.53;3.45;;;;;;;16.68;20.84;100215.41;10228944;28;20204;-88
2022/03/13 14:17:02;;;;;;;5.03;3.55;;;;;;;17.43;20.12;100217.66;10213634;29;20255;-90
2022/03/13 14:22:06;;;;;;;8.13;3.55;;;;;;;17.41;20.55;100219.25;10217637;28;20258;-90
2022/03/13 14:27:09;;;;;;;6.60;4.15;;;;;;;17.50;19.96;100229.13;10225709;28;20231;-90
2022/03/13 14:32:12;;;;;;;5.20;4.28;;;;;;;17.79;19.65;100227.28;10259372;28;20220;-91
2022/03/13 14:37:14;;;;;;;5.35;3.63;;;;;;;17.29;20.14;100231.00;10226134;29;20717;-91
2022/03/13 14:42:37;;;;;;;5.05;3.78;;;;;;;17.06;20.45;100237.78;10235854;29;20207;-88
2022/03/13 14:47:40;;;;;;;3.28;2.97;;;;;;;17.19;20.57;100238.31;10220880;29;20932;-87
2022/03/13 14:53:02;;;;;;;3.97;3.35;;;;;;;17.06;20.49;100237.78;10224075;28;20247;-88
2022/03/13 14:58:05;;;;;;;5.72;3.42;;;;;;;16.94;20.50;100240.91;10231886;28;20360;-90
2022/03/13 15:03:07;;;;;;;7.25;3.78;;;;;;;16.71;20.70;100243.16;10216745;29;20204;-88
2022/03/13 15:08:11;;;;;;;5.35;3.95;;;;;;;15.84;21.02;100253.09;10229239;29;20235;-88
2022/03/13 15:13:13;;;;;;;5.45;4.18;;;;;;;17.06;19.63;100243.50;10228349;29;20665;-86
2022/03/13 15:18:16;;;;;;;5.03;4.10;;;;;;;17.53;19.55;100227.50;10247600;28;20582;-87
2022/03/13 15:23:19;;;;;;;5.97;4.63;;;;;;;16.87;19.93;100237.97;10226641;29;20702;-87
2022/03/13 15:28:26;;;;;;;5.05;4.15;;;;;;;18.03;19.05;100233.50;10232594;29;20203;-91
2022/03/13 15:33:30;;;;;;;4.35;3.75;;;;;;;18.41;19.20;100227.13;10225948;28;20219;-87
2022/03/13 15:38:32;;;;;;;4.35;2.67;;;;;;;17.03;20.60;100230.00;10230147;29;20259;-87
2022/03/13 15:43:36;;;;;;;7.68;2.97;;;;;;;17.48;20.13;100230.75;10208774;28;20298;-87
2022/03/13 15:48:38;;;;;;;2.58;1.80;;;;;;;16.75;20.74;100226.88;10224507;29;20219;-89
2022/03/13 15:53:43;;;;;;;1.88;1.38;;;;;;;17.29;20.51;100233.88;10223795;29;20266;-88
2022/03/13 15:58:45;;;;;;;1.10;0.90;;;;;;;17.23;20.29;100224.06;10222017;29;20267;-89
2022/03/13 16:03:47;;;;;;;1.48;1.25;;;;;;;17.30;20.50;100235.50;10244647;29;20203;-88
2022/03/13 16:08:50;;;;;;;1.65;1.10;;;;;;;17.14;20.52;100239.47;10223069;29;20228;-91
2022/03/13 16:13:56;;;;;;;1.85;1.38;;;;;;;17.11;20.82;100239.44;10227596;28;20255;-93
2022/03/13 16:18:58;;;;;;;1.48;1.13;;;;;;;17.52;20.22;100240.16;10222166;28;20258;-88
2022/03/13 16:24:00;;;;;;;1.90;1.20;;;;;;;17.07;20.49;100245.16;10224313;29;20214;-90
2022/03/13 16:29:03;;;;;;;1.80;1.13;;;;;;;17.24;20.62;100255.06;10233300;29;20626;-92
2022/03/13 16:34:05;;;;;;;1.52;1.40;;;;;;;16.79;20.66;100261.97;10233575;29;21038;-89
2022/03/13 16:39:08;;;;;;;1.20;0.93;;;;;;;17.65;19.94;100258.59;10217516;28;20321;-85
2022/03/13 16:44:11;;;;;;;1.20;1.05;;;;;;;17.70;19.57;100258.28;10212835;29;20321;-88
2022/03/13 16:49:13;;;;;;;3.80;2.15;;;;;;;17.65;19.95;100252.06;10218134;29;20301;-88
2022/03/13 16:54:16;;;;;;;4.25;1.30;;;;;;;17.16;20.82;100261.13;10222512;28;20278;-85
2022/03/13 16:59:21;;;;;;;1.50;1.40;;;;;;;17.57;20.08;100268.38;10213057;28;20714;-86
2022/03/13 17:04:23;;;;;;;2.47;1.40;;;;;;;17.49;20.21;100272.41;10214337;28;20238;-92
2022/03/13 17:09:26;;;;;;;1.50;1.40;;;;;;;17.51;20.28;100261.38;10220340;29;20285;-86
2022/03/13 17:14:28;;;;;;;2.20;1.50;;;;;;;17.79;19.90;100275.88;10225138;28;20254;-88
2022/03/13 17:19:34;;;;;;;18.30;10.93;;;;;;;18.41;19.58;100275.78;10223525;29;20258;-86
2022/03/13 17:24:36;;;;;;;3.17;1.75;;;;;;;17.49;20.33;100283.84;10221938;28;20243;-87
2022/03/13 17:29:39;;;;;;;1.65;1.40;;;;;;;16.49;21.41;100286.94;10233813;29;20238;-88
2022/03/13 17:34:41;;;;;;;1.60;1.40;;;;;;;16.73;20.94;100281.50;10229975;29;20235;-87
2022/03/13 17:39:45;;;;;;;2.20;1.70;;;;;;;16.75;21.39;100290.50;10236774;28;20250;-89
2022/03/13 17:44:48;;;;;;;2.70;1.65;;;;;;;16.72;21.15;100299.00;10211763;29;20251;-88
2022/03/13 17:49:50;;;;;;;6.10;3.53;;;;;;;16.59;21.18;100291.94;10205761;29;20289;-87
2022/03/13 17:54:54;;;;;;;3.83;2.03;;;;;;;16.84;21.28;100304.47;10234807;29;20231;-87
2022/03/13 18:00:01;;;;;;;1.65;1.45;;;;;;;16.39;22.08;100306.41;10201777;29;20399;-89
2022/03/13 18:05:03;;;;;;;6.40;1.90;;;;;;;16.12;22.37;100304.81;10236725;29;20232;-90
2022/03/13 18:10:07;;;;;;;3.63;2.20;;;;;;;17.21;21.59;100306.47;10226687;29;20274;-91
2022/03/13 18:15:10;;;;;;;4.05;2.53;;;;;;;16.95;22.22;100311.09;10222950;28;20266;-87
2022/03/13 18:20:12;;;;;;;7.38;4.47;;;;;;;16.14;21.88;100321.53;10220848;29;20259;-90
2022/03/13 18:25:15;;;;;;;7.72;4.90;;;;;;;16.13;21.81;100334.16;10227172;29;20652;-89
2022/03/13 18:30:17;;;;;;;7.82;5.10;;;;;;;16.23;21.92;100328.56;10222998;28;20285;-87
2022/03/13 18:35:25;;;;;;;7.32;5.55;;;;;;;15.65;21.86;100340.34;10230724;28;20295;-94
2022/03/13 18:40:29;;;;;;;8.60;6.22;;;;;;;15.00;21.51;100340.44;10237760;28;20278;-87
2022/03/13 18:45:32;;;;;;;9.13;6.93;;;;;;;15.55;21.37;100358.09;10229108;28;20253;-87
2022/03/13 18:50:36;;;;;;;12.82;7.70;;;;;;;15.33;20.95;100367.47;10230674;28;20267;-88
2022/03/13 18:55:38;;;;;;;10.85;7.45;;;;;;;16.39;20.57;100365.50;10223881;28;20240;-89
2022/03/13 19:00:41;;;;;;;10.27;7.75;;;;;;;15.69;20.27;100386.81;10234640;28;20322;-87
2022/03/13 19:05:45;;;;;;;9.45;7.35;;;;;;;15.31;21.21;100389.81;10223653;28;20235;-88
2022/03/13 19:10:47;;;;;;;9.33;6.60;;;;;;;15.28;21.13;100399.16;10236954;28;20603;-88
2022/03/13 19:15:52;;;;;;;8.93;6.90;;;;;;;14.63;21.56;100399.06;10222681;28;20284;-93
2022/03/13 19:20:54;;;;;;;9.38;7.15;;;;;;;15.51;21.07;100402.81;10227198;29;20612;-88
2022/03/13 19:25:58;;;;;;;9.93;7.10;;;;;;;15.41;21.00;100403.47;10221294;28;20631;-88
2022/03/13 19:31:01;;;;;;;9.93;7.53;;;;;;;15.16;21.54;100419.25;10225789;28;20222;-87
2022/03/13 19:36:05;;;;;;;9.98;7.40;;;;;;;14.97;21.21;100418.06;10227626;28;20313;-86
2022/03/13 19:41:08;;;;;;;13.25;7.72;;;;;;;15.02;21.26;100426.31;10225462;28;20219;-87
2022/03/13 19:46:11;;;;;;;11.13;8.18;;;;;;;15.77;20.25;100426.88;10218599;28;20605;-87
2022/03/13 19:51:13;;;;;;;11.87;8.10;;;;;;;15.49;20.54;100428.00;10218786;28;20285;-88
2022/03/13 19:56:21;;;;;;;11.25;7.15;;;;;;;16.06;20.23;100446.09;10224385;28;20303;-88
2022/03/13 20:01:24;;;;;;;10.65;8.43;;;;;;;16.84;19.44;100461.50;10214786;28;20305;-90
2022/03/13 20:06:29;;;;;;;12.10;8.18;;;;;;;16.25;19.82;100460.25;10214316;28;20298;-91
2022/03/13 20:11:34;;;;;;;12.82;8.15;;;;;;;15.94;19.78;100471.94;10215288;28;20330;-88
2022/03/13 20:16:38;;;;;;;13.98;8.30;;;;;;;16.62;19.57;100485.25;10222011;28;20223;-89
2022/03/13 20:21:41;;;;;;;13.77;8.88;;;;;;;15.87;19.74;100483.25;10230534;28;20238;-87
2022/03/13 20:26:44;;;;;;;12.77;8.85;;;;;;;15.44;20.14;100504.41;10230292;28;20235;-88
2022/03/13 20:31:48;;;;;;;13.05;9.50;;;;;;;15.66;19.73;100492.22;10222016;28;20239;-88
2022/03/13 20:36:52;;;;;;;14.20;9.47;;;;;;;15.65;19.79;100499.97;10221758;28;20277;-88
2022/03/13 20:41:55;;;;;;;11.80;8.90;;;;;;;16.60;18.91;100497.06;10245298;28;20231;-88
2022/03/13 20:46:58;;;;;;;14.15;9.73;;;;;;;15.98;19.11;100502.19;10245490;28;20473;-89
2022/03/13 20:52:00;;;;;;;16.98;9.25;;;;;;;16.43;19.02;100512.72;10230439;28;20293;-89
2022/03/13 20:57:03;;;;;;;13.05;8.80;;;;;;;15.74;19.75;100528.22;10254888;28;20275;-89
2022/03/13 21:02:05;;;;;;;10.93;8.40;;;;;;;14.70;20.61;100521.56;10258692;28;20203;-87
2022/03/13 21:07:12;;;;;;;12.55;9.02;;;;;;;15.87;19.31;100521.13;10271849;28;20230;-88
2022/03/13 21:12:14;;;;;;;13.02;9.15;;;;;;;15.08;19.58;100534.22;10260894;28;20207;-87
2022/03/13 21:17:17;;;;;;;14.52;9.90;;;;;;;15.62;19.60;100529.22;10247519;28;20619;-88
2022/03/13 21:22:19;;;;;;;13.90;9.63;;;;;;;15.46;19.80;100545.56;10244665;28;20266;-89
2022/03/13 21:27:22;;;;;;;12.53;8.83;;;;;;;15.96;18.93;100543.69;10241350;28;20203;-88
2022/03/13 21:32:25;;;;;;;13.23;9.50;;;;;;;15.73;18.96;100550.22;10229844;28;20235;-88
2022/03/13 21:37:31;;;;;;;13.77;10.20;;;;;;;15.07;19.92;100569.56;10232274;28;20250;-87
2022/03/13 21:42:36;;;;;;;13.88;9.98;;;;;;;15.61;19.10;100567.47;10253463;28;20208;-87
2022/03/13 21:47:38;;;;;;;14.75;9.85;;;;;;;15.77;18.77;100564.53;10278157;28;20202;-87
2022/03/13 21:52:42;;;;;;;10.82;8.63;;;;;;;16.40;18.80;100564.84;10265014;28;20207;-87
2022/03/13 21:57:48;;;;;;;10.50;8.43;;;;;;;16.60;19.08;100573.28;10242930;28;20286;-89
2022/03/13 22:02:50;;;;;;;18.00;9.98;;;;;;;16.28;18.69;100567.06;10247106;28;20215;-87
2022/03/13 22:07:53;;;;;;;13.52;9.63;;;;;;;16.48;18.80;100567.81;10244084;28;20270;-89
2022/03/13 22:12:56;;;;;;;13.93;9.90;;;;;;;16.25;19.00;100565.78;10248965;28;20210;-88
2022/03/13 22:18:01;;;;;;;15.15;9.60;;;;;;;16.18;19.30;100565.69;10236694;28;20267;-88
2022/03/13 22:23:05;;;;;;;15.70;9.57;;;;;;;16.18;19.13;100577.09;10232963;28;20219;-88
2022/03/13 22:28:08;;;;;;;13.50;9.60;;;;;;;15.70;19.97;100582.28;10237512;28;20274;-88
2022/03/13 22:33:10;;;;;;;13.48;9.18;;;;;;;15.69;19.81;100589.19;10256486;28;20615;-89
2022/03/13 22:38:13;;;;;;;14.20;10.20;;;;;;;15.74;19.08;100593.78;10237556;28;20296;-87
2022/03/13 22:43:16;;;;;;;12.53;9.30;;;;;;;15.84;19.99;100596.00;10255697;28;21020;-90
2022/03/13 22:48:19;;;;;;;11.70;9.20;;;;;;;15.73;19.73;100610.06;10232928;28;20247;-91
2022/03/13 22:53:22;;;;;;;15.88;9.50;;;;;;;16.15;19.04;100603.53;10234077;28;20266;-88
2022/03/13 22:58:31;;;;;;;14.55;10.25;;;;;;;16.20;19.03;100600.34;10236194;28;20306;-89
2022/03/13 23:03:35;;;;;;;14.55;10.52;;;;;;;16.05;19.49;100601.31;10249574;28;20231;-87
2022/03/13 23:08:37;;;;;;;14.35;10.07;;;;;;;16.14;19.32;100601.88;10234667;29;20498;-88
2022/03/13 23:13:43;;;;;;;15.48;10.75;;;;;;;16.18;19.43;100619.88;10244898;28;20599;-88